createdAt,value
2023-05-14T00:00:01.624Z,97903.69
2023-05-14T00:02:34.620Z,97907.06
2023-05-14T00:05:08.602Z,97902.88
2023-05-14T00:07:41.614Z,97901.16
2023-05-14T00:10:14.556Z,97896.03
2023-05-14T00:12:47.507Z,97883.09
2023-05-14T00:15:22.198Z,97884.88
2023-05-14T00:17:55.287Z,97890.00
2023-05-14T00:20:28.327Z,97888.38
2023-05-14T00:23:01.529Z,97895.19
2023-05-14T00:25:34.459Z,97884.16
2023-05-14T00:28:07.424Z,97879.03
2023-05-14T00:30:41.810Z,97875.56
2023-05-14T00:33:14.863Z,97879.03
2023-05-14T00:35:47.829Z,97874.69
2023-05-14T00:38:20.775Z,97862.13
2023-05-14T00:40:53.712Z,97865.13
2023-05-14T00:43:26.671Z,97869.13
2023-05-14T00:46:01.411Z,97863.03
2023-05-14T00:48:34.446Z,97863.84
2023-05-14T00:51:09.081Z,97867.28
2023-05-14T00:53:42.695Z,97872.41
2023-05-14T00:56:16.967Z,97869.78
2023-05-14T00:58:49.919Z,97877.28
2023-05-14T01:01:24.290Z,97869.59
2023-05-14T01:03:58.184Z,97873.69
2023-05-14T01:06:41.734Z,97859.13
2023-05-14T01:09:25.360Z,97857.28
2023-05-14T01:12:04.724Z,97860.66
2023-05-14T01:14:44.891Z,97853.84
2023-05-14T01:17:22.774Z,97850.25
2023-05-14T01:19:57.756Z,97851.84
2023-05-14T01:22:32.027Z,97856.66
2023-05-14T01:25:05.878Z,97856.47
2023-05-14T01:27:49.895Z,97858.41
2023-05-14T01:30:31.067Z,97866.91
2023-05-14T01:33:09.326Z,97860.16
2023-05-14T01:35:43.003Z,97859.38
2023-05-14T01:38:20.144Z,97853.44
2023-05-14T01:40:54.950Z,97856.00
2023-05-14T01:43:28.679Z,97866.09
2023-05-14T01:46:01.715Z,97865.13
2023-05-14T01:48:34.642Z,97861.94
2023-05-14T01:51:07.682Z,97870.41
2023-05-14T01:53:42.032Z,97860.97
2023-05-14T01:56:14.994Z,97859.28
2023-05-14T01:58:48.025Z,97860.97
2023-05-14T02:01:21.121Z,97856.66
2023-05-14T02:03:54.129Z,97850.38
2023-05-14T02:06:27.075Z,97851.81
2023-05-14T02:09:01.394Z,97850.06
2023-05-14T02:11:34.362Z,97849.19
2023-05-14T02:14:07.306Z,97851.66
2023-05-14T02:16:40.581Z,97856.63
2023-05-14T02:19:13.641Z,97856.53
2023-05-14T02:21:46.633Z,97853.19
2023-05-14T02:24:21.378Z,97850.47
2023-05-14T02:26:54.444Z,97852.13
2023-05-14T02:29:27.385Z,97847.91
2023-05-14T02:32:00.406Z,97854.06
2023-05-14T02:34:34.375Z,97854.06
2023-05-14T02:37:07.346Z,97860.94
2023-05-14T02:39:41.646Z,97849.81
2023-05-14T02:42:14.590Z,97849.75
2023-05-14T02:44:47.523Z,97846.38
2023-05-14T02:47:20.638Z,97855.66
2023-05-14T02:49:53.757Z,97849.66
2023-05-14T02:52:26.685Z,97851.25
2023-05-14T02:55:01.052Z,97847.09
2023-05-14T02:57:34.024Z,97852.13
2023-05-14T03:00:09.108Z,97851.19
2023-05-14T03:02:43.526Z,97850.47
2023-05-14T03:05:17.012Z,97852.31
2023-05-14T03:07:51.240Z,97856.69
2023-05-14T03:10:25.834Z,97858.47
2023-05-14T03:12:58.927Z,97864.56
2023-05-14T03:15:31.907Z,97857.03
2023-05-14T03:18:05.085Z,97852.63
2023-05-14T03:20:38.093Z,97856.13
2023-05-14T03:23:11.102Z,97856.31
2023-05-14T03:25:45.389Z,97853.66
2023-05-14T03:28:18.321Z,97850.69
2023-05-14T03:30:51.457Z,97855.50
2023-05-14T03:33:24.606Z,97855.34
2023-05-14T03:35:57.760Z,97857.09
2023-05-14T03:38:30.673Z,97851.97
2023-05-14T03:41:05.147Z,97849.50
2023-05-14T03:43:38.137Z,97855.66
2023-05-14T03:46:11.178Z,97855.81
2023-05-14T03:48:44.164Z,97855.97
2023-05-14T03:51:17.180Z,97853.50
2023-05-14T03:53:50.140Z,97851.00
2023-05-14T03:56:24.490Z,97850.94
2023-05-14T03:58:57.523Z,97842.38
2023-05-14T04:01:30.506Z,97849.25
2023-05-14T04:04:03.607Z,97849.97
2023-05-14T04:06:37.359Z,97845.72
2023-05-14T04:09:11.457Z,97842.53
2023-05-14T04:11:46.152Z,97851.97
2023-05-14T04:14:19.213Z,97848.25
2023-05-14T04:16:52.182Z,97844.78
2023-05-14T04:19:25.199Z,97842.88
2023-05-14T04:21:58.143Z,97846.41
2023-05-14T04:24:31.086Z,97840.31
2023-05-14T04:27:06.253Z,97826.81
2023-05-14T04:29:39.195Z,97835.22
2023-05-14T04:32:12.244Z,97836.94
2023-05-14T04:34:46.830Z,97837.81
2023-05-14T04:37:19.908Z,97833.69
2023-05-14T04:39:52.924Z,97839.09
2023-05-14T04:42:27.213Z,97845.28
2023-05-14T04:45:00.424Z,97838.16
2023-05-14T04:47:33.577Z,97838.06
2023-05-14T04:50:09.261Z,97838.06
2023-05-14T04:52:42.240Z,97832.81
2023-05-14T04:55:15.200Z,97843.28
2023-05-14T04:57:49.457Z,97839.66
2023-05-14T05:00:23.352Z,97846.41
2023-05-14T05:02:56.693Z,97839.50
2023-05-14T05:05:29.658Z,97844.56
2023-05-14T05:08:02.694Z,97839.16
2023-05-14T05:10:35.909Z,97840.94
2023-05-14T05:13:10.210Z,97845.44
2023-05-14T05:15:43.338Z,97842.31
2023-05-14T05:18:16.381Z,97834.84
2023-05-14T05:20:49.418Z,97839.31
2023-05-14T05:23:22.441Z,97840.47
2023-05-14T05:25:55.476Z,97840.56
2023-05-14T05:28:29.974Z,97843.34
2023-05-14T05:31:03.217Z,97833.63
2023-05-14T05:33:36.627Z,97837.50
2023-05-14T05:36:10.341Z,97839.81
2023-05-14T05:38:43.474Z,97838.38
2023-05-14T05:42:34.850Z,97830.28
2023-05-14T05:45:09.310Z,97836.53
2023-05-14T05:47:42.303Z,97823.38
2023-05-14T05:50:15.464Z,97827.28
2023-05-14T05:52:48.583Z,97824.88
2023-05-14T05:55:21.861Z,97839.38
2023-05-14T05:59:46.521Z,97828.94
2023-05-14T06:04:34.629Z,97824.16
2023-05-14T06:07:08.301Z,97834.56
2023-05-14T06:09:42.001Z,97831.66
2023-05-14T06:13:36.144Z,97835.31
2023-05-14T06:16:09.987Z,97838.31
2023-05-14T06:18:43.874Z,97826.00
2023-05-14T06:21:17.598Z,97828.13
2023-05-14T06:23:51.312Z,97825.16
2023-05-14T06:27:52.575Z,97823.69
2023-05-14T06:31:13.909Z,97821.34
2023-05-14T06:35:25.349Z,97826.53
2023-05-14T06:37:59.014Z,97824.13
2023-05-14T06:40:33.064Z,97828.31
2023-05-14T06:43:17.926Z,97825.31
2023-05-14T06:45:51.850Z,97829.06
2023-05-14T06:48:27.838Z,97830.13
2023-05-14T06:52:17.799Z,97821.06
2023-05-14T06:54:50.853Z,97820.16
2023-05-14T06:57:23.796Z,97819.09
2023-05-14T06:59:57.426Z,97827.84
2023-05-14T07:02:30.483Z,97820.41
2023-05-14T07:05:03.704Z,97817.13
2023-05-14T07:07:38.061Z,97818.88
2023-05-14T07:10:11.490Z,97820.78
2023-05-14T07:12:45.171Z,97818.81
2023-05-14T07:15:18.359Z,97816.66
2023-05-14T07:17:51.379Z,97816.66
2023-05-14T07:20:25.013Z,97817.00
2023-05-14T07:22:59.733Z,97828.59
2023-05-14T07:25:33.206Z,97831.78
2023-05-14T07:28:06.373Z,97824.06
2023-05-14T07:30:39.417Z,97826.00
2023-05-14T07:33:12.384Z,97826.03
2023-05-14T07:35:45.401Z,97819.59
2023-05-14T07:38:21.106Z,97820.06
2023-05-14T07:40:54.372Z,97824.56
2023-05-14T07:43:27.430Z,97812.34
2023-05-14T07:46:00.378Z,97810.13
2023-05-14T07:48:33.479Z,97811.00
2023-05-14T07:51:06.562Z,97806.44
2023-05-14T07:53:41.210Z,97809.84
2023-05-14T07:56:14.199Z,97798.94
2023-05-14T07:58:47.165Z,97801.53
2023-05-14T08:01:20.768Z,97807.25
2023-05-14T08:03:53.910Z,97796.88
2023-05-14T08:06:27.570Z,97792.25
2023-05-14T08:09:01.904Z,97791.66
2023-05-14T08:11:35.004Z,97788.22
2023-05-14T08:14:08.053Z,97798.19
2023-05-14T08:16:41.091Z,97795.31
2023-05-14T08:19:14.592Z,97797.50
2023-05-14T08:21:47.719Z,97800.72
2023-05-14T08:24:22.082Z,97796.47
2023-05-14T08:26:56.209Z,97795.38
2023-05-14T08:29:29.436Z,97790.97
2023-05-14T08:32:08.737Z,97791.59
2023-05-14T08:34:52.954Z,97792.47
2023-05-14T08:37:26.085Z,97783.78
2023-05-14T08:40:00.411Z,97793.91
2023-05-14T08:42:33.718Z,97785.94
2023-05-14T08:45:11.722Z,97793.38
2023-05-14T08:47:48.987Z,97782.34
2023-05-14T08:50:23.641Z,97783.00
2023-05-14T08:52:57.168Z,97787.38
2023-05-14T08:55:33.387Z,97785.09
2023-05-14T08:58:06.422Z,97787.88
2023-05-14T09:00:39.509Z,97782.06
2023-05-14T09:03:13.046Z,97791.88
2023-05-14T09:05:47.602Z,97787.72
2023-05-14T09:08:21.210Z,97784.09
2023-05-14T09:10:55.509Z,97776.31
2023-05-14T09:13:28.504Z,97783.50
2023-05-14T09:16:02.628Z,97784.41
2023-05-14T09:18:37.865Z,97773.84
2023-05-14T09:21:10.956Z,97774.28
2023-05-14T09:23:45.380Z,97777.97
2023-05-14T09:26:19.834Z,97767.09
2023-05-14T09:28:56.711Z,97769.34
2023-05-14T09:31:31.406Z,97766.34
2023-05-14T09:34:04.422Z,97766.88
2023-05-14T09:36:37.419Z,97765.34
2023-05-14T09:39:10.510Z,97766.16
2023-05-14T09:41:44.827Z,97758.94
2023-05-14T09:44:17.878Z,97754.31
2023-05-14T09:46:51.820Z,97759.31
2023-05-14T09:49:24.880Z,97760.50
2023-05-14T09:51:58.000Z,97769.97
2023-05-14T09:54:33.125Z,97752.97
2023-05-14T09:57:07.679Z,97746.66
2023-05-14T09:59:41.074Z,97747.97
2023-05-14T10:02:23.335Z,97746.03
2023-05-14T10:04:59.037Z,97738.34
2023-05-14T10:07:40.443Z,97745.56
2023-05-14T10:10:20.057Z,97731.81
2023-05-14T10:12:58.798Z,97739.81
2023-05-14T10:15:39.007Z,97743.56
2023-05-14T10:18:19.061Z,97736.28
2023-05-14T10:21:02.701Z,97727.25
2023-05-14T10:23:37.780Z,97722.28
2023-05-14T10:26:12.140Z,97718.72
2023-05-14T10:28:47.026Z,97721.09
2023-05-14T10:31:24.333Z,97720.13
2023-05-14T10:33:59.746Z,97712.47
2023-05-14T10:36:33.122Z,97718.09
2023-05-14T10:39:06.117Z,97721.78
2023-05-14T10:41:40.353Z,97713.88
2023-05-14T10:44:15.370Z,97713.91
2023-05-14T10:46:48.518Z,97717.75
2023-05-14T10:49:36.127Z,97709.66
2023-05-14T10:52:19.462Z,97716.09
2023-05-14T10:54:54.485Z,97716.38
2023-05-14T10:57:30.668Z,97712.97
2023-05-14T11:00:08.888Z,97713.09
2023-05-14T11:02:43.885Z,97710.25
2023-05-14T11:05:18.097Z,97705.81
2023-05-14T11:07:52.477Z,97702.19
2023-05-14T11:10:28.315Z,97696.63
2023-05-14T11:13:01.308Z,97692.66
2023-05-14T11:15:36.060Z,97687.34
2023-05-14T11:18:11.694Z,97691.16
2023-05-14T11:20:44.782Z,97687.50
2023-05-14T11:23:17.700Z,97686.34
2023-05-14T11:25:50.826Z,97679.97
2023-05-14T11:28:24.276Z,97677.88
2023-05-14T11:30:59.167Z,97675.59
2023-05-14T11:33:32.665Z,97675.94
2023-05-14T11:36:06.792Z,97672.97
2023-05-14T11:38:50.504Z,97677.19
2023-05-14T11:41:23.601Z,97673.75
2023-05-14T11:43:56.919Z,97671.91
2023-05-14T11:46:31.419Z,97671.34
2023-05-14T11:49:06.588Z,97675.47
2023-05-14T11:51:39.576Z,97672.22
2023-05-14T11:54:15.407Z,97659.28
2023-05-14T11:56:52.413Z,97663.88
2023-05-14T11:59:27.677Z,97663.91
2023-05-14T12:02:02.722Z,97662.63
2023-05-14T12:04:35.840Z,97656.81
2023-05-14T12:07:12.152Z,97653.47
2023-05-14T12:09:49.231Z,97649.06
2023-05-14T12:12:23.760Z,97647.16
2023-05-14T12:14:56.693Z,97645.53
2023-05-14T12:17:31.001Z,97649.75
2023-05-14T12:20:04.481Z,97647.69
2023-05-14T12:22:37.586Z,97634.88
2023-05-14T12:25:14.348Z,97632.03
2023-05-14T12:27:47.484Z,97634.38
2023-05-14T12:30:22.117Z,97630.72
2023-05-14T12:32:56.695Z,97625.63
2023-05-14T12:35:30.351Z,97629.00
2023-05-14T12:38:03.578Z,97621.88
2023-05-14T12:40:36.548Z,97624.06
2023-05-14T12:43:09.540Z,97619.84
2023-05-14T12:45:42.507Z,97614.94
2023-05-14T12:48:16.879Z,97617.69
2023-05-14T12:50:50.711Z,97612.22
2023-05-14T12:53:23.656Z,97606.72
2023-05-14T12:55:56.706Z,97604.31
2023-05-14T12:58:29.859Z,97603.91
2023-05-14T13:01:02.901Z,97605.09
2023-05-14T13:03:37.304Z,97607.13
2023-05-14T13:06:10.699Z,97590.72
2023-05-14T13:08:43.667Z,97593.97
2023-05-14T13:11:16.693Z,97601.78
2023-05-14T13:13:49.659Z,97588.94
2023-05-14T13:16:22.778Z,97586.13
2023-05-14T13:18:57.233Z,97588.41
2023-05-14T13:21:31.264Z,97589.59
2023-05-14T13:24:04.668Z,97581.34
2023-05-14T13:26:38.154Z,97580.72
2023-05-14T13:29:11.249Z,97578.34
2023-05-14T13:31:44.213Z,97576.19
2023-05-14T13:34:18.545Z,97575.53
2023-05-14T13:36:51.511Z,97567.91
2023-05-14T13:39:27.028Z,97566.22
2023-05-14T13:42:01.077Z,97559.75
2023-05-14T13:44:34.049Z,97552.47
2023-05-14T13:47:07.722Z,97551.50
2023-05-14T13:49:42.033Z,97549.63
2023-05-14T13:52:15.006Z,97553.25
2023-05-14T13:54:48.326Z,97542.66
2023-05-14T13:57:21.446Z,97543.78
2023-05-14T13:59:54.492Z,97536.38
2023-05-14T14:02:27.580Z,97542.47
2023-05-14T14:05:02.097Z,97543.59
2023-05-14T14:07:35.108Z,97536.47
2023-05-14T14:10:10.275Z,97532.25
2023-05-14T14:12:43.262Z,97536.34
2023-05-14T14:15:16.650Z,97534.56
2023-05-14T14:17:49.786Z,97535.03
2023-05-14T14:20:24.090Z,97528.00
2023-05-14T14:22:57.139Z,97528.00
2023-05-14T14:25:30.217Z,97526.75
2023-05-14T14:28:03.232Z,97527.50
2023-05-14T14:30:36.222Z,97526.34
2023-05-14T14:33:09.277Z,97528.06
2023-05-14T14:35:43.660Z,97523.84
2023-05-14T14:38:16.631Z,97536.22
2023-05-14T14:40:49.674Z,97523.69
2023-05-14T14:43:22.813Z,97524.63
2023-05-14T14:45:56.226Z,97527.66
2023-05-14T14:48:33.941Z,97526.56
2023-05-14T14:51:09.374Z,97523.44
2023-05-14T14:53:42.645Z,97536.47
2023-05-14T14:56:15.608Z,97526.22
2023-05-14T14:58:48.617Z,97528.56
2023-05-14T15:01:22.740Z,97534.47
2023-05-14T15:03:55.800Z,97529.16
2023-05-14T15:06:30.173Z,97526.00
2023-05-14T15:09:03.311Z,97525.88
2023-05-14T15:11:37.510Z,97526.41
2023-05-14T15:14:10.814Z,97527.88
2023-05-14T15:16:43.838Z,97526.50
2023-05-14T15:19:17.238Z,97527.53
2023-05-14T15:21:51.829Z,97527.31
2023-05-14T15:24:26.100Z,97517.47
2023-05-14T15:26:59.073Z,97519.31
2023-05-14T15:29:32.984Z,97523.56
2023-05-14T15:32:07.063Z,97514.16
2023-05-14T15:34:40.014Z,97519.22
2023-05-14T15:37:14.402Z,97518.66
2023-05-14T15:39:47.402Z,97523.78
2023-05-14T15:42:20.877Z,97525.91
2023-05-14T15:44:53.886Z,97522.56
2023-05-14T15:47:26.948Z,97517.66
2023-05-14T15:50:00.286Z,97516.75
2023-05-14T15:52:35.771Z,97515.31
2023-05-14T15:55:09.803Z,97525.38
2023-05-14T15:57:42.831Z,97520.25
2023-05-14T16:00:17.536Z,97509.28
2023-05-14T16:02:50.717Z,97505.84
2023-05-14T16:05:23.764Z,97507.56
2023-05-14T16:07:58.189Z,97512.06
2023-05-14T16:10:31.304Z,97527.81
2023-05-14T16:13:04.361Z,97519.84
2023-05-14T16:15:37.408Z,97522.34
2023-05-14T16:18:10.495Z,97522.25
2023-05-14T16:20:43.575Z,97519.19
2023-05-14T16:23:18.123Z,97508.97
2023-05-14T16:25:51.338Z,97505.34
2023-05-14T16:28:24.445Z,97512.34
2023-05-14T16:30:57.556Z,97507.25
2023-05-14T16:33:30.739Z,97512.28
2023-05-14T16:36:04.626Z,97505.13
2023-05-14T16:38:48.192Z,97512.06
2023-05-14T16:41:30.133Z,97510.16
2023-05-14T16:44:03.514Z,97517.19
2023-05-14T16:46:36.707Z,97509.94
2023-05-14T16:49:09.749Z,97518.03
2023-05-14T16:51:43.883Z,97509.28
2023-05-14T16:54:18.269Z,97510.06
2023-05-14T16:56:51.969Z,97510.97
2023-05-14T16:59:25.142Z,97502.25
2023-05-14T17:01:58.324Z,97502.84
2023-05-14T17:04:32.838Z,97499.19
2023-05-14T17:07:06.660Z,97503.47
2023-05-14T17:09:41.050Z,97500.78
2023-05-14T17:12:14.099Z,97503.47
2023-05-14T17:14:47.120Z,97505.72
2023-05-14T17:17:20.204Z,97500.84
2023-05-14T17:19:53.229Z,97506.06
2023-05-14T17:22:26.346Z,97503.38
2023-05-14T17:25:01.014Z,97505.13
2023-05-14T17:27:34.098Z,97503.91
2023-05-14T17:30:08.995Z,97497.03
2023-05-14T17:32:42.023Z,97499.97
2023-05-14T17:35:16.276Z,97499.47
2023-05-14T17:37:49.406Z,97499.59
2023-05-14T17:40:23.795Z,97499.66
2023-05-14T17:42:56.911Z,97502.06
2023-05-14T17:45:39.319Z,97507.91
2023-05-14T17:48:16.000Z,97504.25
2023-05-14T17:50:49.017Z,97511.19
2023-05-14T17:53:22.092Z,97507.69
2023-05-14T17:55:56.534Z,97513.78
2023-05-14T17:58:29.589Z,97511.06
2023-05-14T18:01:02.762Z,97514.88
2023-05-14T18:03:35.893Z,97517.19
2023-05-14T18:06:09.656Z,97516.50
2023-05-14T18:08:42.834Z,97516.34
2023-05-14T18:11:17.203Z,97518.59
2023-05-14T18:13:50.198Z,97525.59
2023-05-14T18:16:23.326Z,97520.34
2023-05-14T18:18:56.540Z,97522.81
2023-05-14T18:21:29.599Z,97519.16
2023-05-14T18:24:02.643Z,97524.09
2023-05-14T18:26:37.056Z,97521.22
2023-05-14T18:29:10.131Z,97530.38
2023-05-14T18:31:43.438Z,97523.19
2023-05-14T18:34:16.959Z,97526.34
2023-05-14T18:36:50.095Z,97533.75
2023-05-14T18:39:23.086Z,97538.69
2023-05-14T18:41:57.512Z,97536.59
2023-05-14T18:44:30.896Z,97542.31
2023-05-14T18:47:03.968Z,97543.84
2023-05-14T18:49:38.628Z,97543.56
2023-05-14T18:52:11.646Z,97547.56
2023-05-14T18:54:44.638Z,97543.75
2023-05-14T18:57:19.041Z,97544.31
2023-05-14T18:59:52.066Z,97539.72
2023-05-14T19:02:25.206Z,97552.34
2023-05-14T19:04:58.303Z,97542.66
2023-05-14T19:07:32.134Z,97551.81
2023-05-14T19:10:06.515Z,97544.59
2023-05-14T19:12:41.100Z,97547.69
2023-05-14T19:15:14.149Z,97549.13
2023-05-14T19:17:47.188Z,97561.88
2023-05-14T19:20:20.367Z,97564.28
2023-05-14T19:22:53.356Z,97562.34
2023-05-14T19:25:26.859Z,97572.47
2023-05-14T19:28:03.635Z,97561.22
2023-05-14T19:30:36.752Z,97557.69
2023-05-14T19:33:09.829Z,97568.94
2023-05-14T19:35:42.856Z,97560.94
2023-05-14T19:38:15.971Z,97568.56
2023-05-14T19:40:49.045Z,97565.19
2023-05-14T19:43:23.830Z,97562.50
2023-05-14T19:45:56.849Z,97567.75
2023-05-14T19:48:31.295Z,97563.38
2023-05-14T19:51:04.505Z,97569.16
2023-05-14T19:53:37.567Z,97566.28
2023-05-14T19:56:10.896Z,97573.81
2023-05-14T19:58:45.720Z,97574.50
2023-05-14T20:01:19.231Z,97571.00
2023-05-14T20:03:52.274Z,97576.09
2023-05-14T20:06:25.699Z,97575.22
2023-05-14T20:08:58.689Z,97575.22
2023-05-14T20:11:31.679Z,97580.47
2023-05-14T20:14:06.127Z,97593.38
2023-05-14T20:16:39.162Z,97593.56
2023-05-14T20:19:12.549Z,97594.22
2023-05-14T20:21:45.596Z,97585.69
2023-05-14T20:24:18.625Z,97575.06
2023-05-14T20:26:51.742Z,97575.72
2023-05-14T20:29:26.112Z,97569.84
2023-05-14T20:31:59.180Z,97573.78
2023-05-14T20:34:32.222Z,97579.72
2023-05-14T20:37:06.703Z,97571.81
2023-05-14T20:39:39.743Z,97574.28
2023-05-14T20:42:12.819Z,97573.66
2023-05-14T20:44:48.378Z,97578.63
2023-05-14T20:47:24.340Z,97569.97
2023-05-14T20:49:57.421Z,97569.84
2023-05-14T20:52:30.660Z,97572.94
2023-05-14T20:55:03.764Z,97560.44
2023-05-14T20:57:36.854Z,97566.06
2023-05-14T21:00:13.343Z,97565.06
2023-05-14T21:02:46.544Z,97559.63
2023-05-14T21:05:20.684Z,97564.72
2023-05-14T21:07:53.720Z,97562.78
2023-05-14T21:10:26.850Z,97557.44
2023-05-14T21:13:00.305Z,97556.44
2023-05-14T21:15:34.779Z,97573.44
2023-05-14T21:18:07.904Z,97570.94
2023-05-14T21:20:41.809Z,97565.81
2023-05-14T21:23:14.829Z,97572.78
2023-05-14T21:25:47.878Z,97573.72
2023-05-14T21:28:20.904Z,97570.25
2023-05-14T21:30:55.245Z,97573.00
2023-05-14T21:33:28.310Z,97566.34
2023-05-14T21:36:01.364Z,97566.00
2023-05-14T21:38:34.945Z,97567.19
2023-05-14T21:41:08.049Z,97560.56
2023-05-14T21:43:41.503Z,97555.09
2023-05-14T21:46:16.301Z,97562.78
2023-05-14T21:48:49.471Z,97553.38
2023-05-14T21:51:22.555Z,97558.47
2023-05-14T21:53:55.579Z,97553.59
2023-05-14T21:56:28.670Z,97557.16
2023-05-14T21:59:01.658Z,97558.38
2023-05-14T22:01:46.050Z,97555.91
2023-05-14T22:04:28.933Z,97552.13
2023-05-14T22:07:02.111Z,97557.25
2023-05-14T22:09:35.123Z,97550.47
2023-05-14T22:12:09.125Z,97545.22
2023-05-14T22:14:42.166Z,97546.84
2023-05-14T22:17:16.655Z,97545.16
2023-05-14T22:19:49.662Z,97540.81
2023-05-14T22:22:22.728Z,97548.59
2023-05-14T22:24:56.327Z,97541.84
2023-05-14T22:27:29.422Z,97541.84
2023-05-14T22:30:02.461Z,97537.38
2023-05-14T22:32:36.807Z,97539.97
2023-05-14T22:35:11.211Z,97538.22
2023-05-14T22:37:44.404Z,97538.47
2023-05-14T22:40:17.474Z,97540.22
2023-05-14T22:42:50.469Z,97536.59
2023-05-14T22:45:23.689Z,97546.56
2023-05-14T22:47:58.264Z,97541.44
2023-05-14T22:50:31.327Z,97537.94
2023-05-14T22:53:04.325Z,97541.19
2023-05-14T22:55:37.361Z,97536.91
2023-05-14T22:58:10.373Z,97532.56
2023-05-14T23:00:43.378Z,97527.44
2023-05-14T23:03:17.757Z,97526.75
2023-05-14T23:05:52.002Z,97519.63
2023-05-14T23:08:25.041Z,97522.97
2023-05-14T23:10:58.046Z,97519.28
2023-05-14T23:13:31.056Z,97525.19
2023-05-14T23:16:04.682Z,97519.31
2023-05-14T23:18:39.189Z,97525.28
2023-05-14T23:21:13.664Z,97516.63
2023-05-14T23:23:46.697Z,97523.25
2023-05-14T23:26:19.711Z,97515.97
2023-05-14T23:28:52.710Z,97517.44
2023-05-14T23:31:25.830Z,97520.56
2023-05-14T23:34:00.259Z,97512.28
2023-05-14T23:36:33.513Z,97516.47
2023-05-14T23:39:06.635Z,97512.28
2023-05-14T23:41:39.650Z,97510.66
2023-05-14T23:44:12.721Z,97509.94
2023-05-14T23:46:45.730Z,97514.25
2023-05-14T23:49:20.359Z,97512.44
2023-05-14T23:51:53.371Z,97503.94
2023-05-14T23:54:26.361Z,97500.63
2023-05-14T23:56:59.438Z,97499.94
2023-05-14T23:59:32.596Z,97502.59
